createdAt,value
2019-06-18T00:00:01.539Z,1013.63
2019-06-18T00:01:01.866Z,1013.65
2019-06-18T00:02:03.253Z,1013.65
2019-06-18T00:03:04.662Z,1013.57
2019-06-18T00:04:06.069Z,1013.58
2019-06-18T00:05:07.473Z,1013.60
2019-06-18T00:06:10.634Z,1013.58
2019-06-18T00:07:11.069Z,1013.59
2019-06-18T00:08:11.725Z,1013.54
2019-06-18T00:09:12.968Z,1013.55
2019-06-18T00:10:14.395Z,1013.52
2019-06-18T00:11:15.787Z,1013.48
2019-06-18T00:12:17.187Z,1013.51
2019-06-18T00:13:21.028Z,1013.48
2019-06-18T00:14:20.787Z,1013.45
2019-06-18T00:15:21.502Z,1013.50
2019-06-18T00:16:22.680Z,1013.50
2019-06-18T00:17:24.084Z,1013.47
2019-06-18T00:18:25.482Z,1013.48
2019-06-18T00:19:26.893Z,1013.46
2019-06-18T00:20:30.768Z,1013.44
2019-06-18T00:21:30.663Z,1013.44
2019-06-18T00:22:31.306Z,1013.44
2019-06-18T00:23:32.413Z,1013.44
2019-06-18T00:24:33.817Z,1013.46
2019-06-18T00:25:35.219Z,1013.45
2019-06-18T00:26:36.616Z,1013.47
2019-06-18T00:27:38.010Z,1013.47
2019-06-18T00:28:40.717Z,1013.44
2019-06-18T00:29:40.843Z,1013.46
2019-06-18T00:30:42.283Z,1013.39
2019-06-18T00:31:43.499Z,1013.43
2019-06-18T00:32:44.893Z,1013.43
2019-06-18T00:33:46.312Z,1013.43
2019-06-18T00:34:47.706Z,1013.41
2019-06-18T00:35:51.338Z,1013.41
2019-06-18T00:36:50.849Z,1013.44
2019-06-18T00:37:51.842Z,1013.42
2019-06-18T00:38:53.237Z,1013.47
2019-06-18T00:39:54.632Z,1013.43
2019-06-18T00:40:57.788Z,1013.41
2019-06-18T00:41:58.924Z,1013.45
2019-06-18T00:42:58.861Z,1013.42
2019-06-18T00:44:00.121Z,1013.39
2019-06-18T00:45:01.893Z,1013.40
2019-06-18T00:46:04.607Z,1013.37
2019-06-18T00:47:04.355Z,1013.39
2019-06-18T00:48:07.088Z,1013.37
2019-06-18T00:49:07.251Z,1013.34
2019-06-18T00:50:08.426Z,1013.34
2019-06-18T00:51:09.818Z,1013.34
2019-06-18T00:52:11.215Z,1013.35
2019-06-18T00:53:12.607Z,1013.38
2019-06-18T00:54:13.994Z,1013.33
2019-06-18T00:55:17.597Z,1013.35
2019-06-18T00:56:17.280Z,1013.30
2019-06-18T00:57:18.101Z,1013.35
2019-06-18T00:58:19.494Z,1013.32
2019-06-18T00:59:20.891Z,1013.28
2019-06-18T01:00:22.283Z,1013.28
2019-06-18T01:01:23.685Z,1013.26
2019-06-18T01:02:27.291Z,1013.26
2019-06-18T01:03:26.599Z,1013.25
2019-06-18T01:04:27.786Z,1013.24
2019-06-18T01:05:29.205Z,1013.23
2019-06-18T01:06:30.586Z,1013.20
2019-06-18T01:07:31.990Z,1013.19
2019-06-18T01:08:33.395Z,1013.23
2019-06-18T01:09:37.079Z,1013.20
2019-06-18T01:10:37.860Z,1013.20
2019-06-18T01:11:37.877Z,1013.20
2019-06-18T01:12:38.877Z,1013.19
2019-06-18T01:13:40.274Z,1013.15
2019-06-18T01:14:41.682Z,1013.14
2019-06-18T01:15:43.082Z,1013.13
2019-06-18T01:16:46.712Z,1013.13
2019-06-18T01:17:47.587Z,1013.14
2019-06-18T01:18:47.300Z,1013.10
2019-06-18T01:19:48.553Z,1013.14
2019-06-18T01:20:49.951Z,1013.09
2019-06-18T01:21:51.347Z,1013.12
2019-06-18T01:22:52.750Z,1013.11
2019-06-18T01:24:00.945Z,1013.09
2019-06-18T01:24:55.512Z,1013.07
2019-06-18T01:25:56.907Z,1013.09
2019-06-18T01:26:58.314Z,1013.10
2019-06-18T01:27:59.711Z,1013.11
2019-06-18T01:29:02.368Z,1013.13
2019-06-18T01:30:03.410Z,1013.08
2019-06-18T01:31:03.819Z,1013.09
2019-06-18T01:32:05.213Z,1013.09
2019-06-18T01:33:06.613Z,1013.11
2019-06-18T01:34:08.009Z,1013.10
2019-06-18T01:35:09.407Z,1013.15
2019-06-18T01:36:12.842Z,1013.12
2019-06-18T01:37:12.799Z,1013.11
2019-06-18T01:38:13.525Z,1013.16
2019-06-18T01:39:14.917Z,1013.11
2019-06-18T01:40:16.318Z,1013.09
2019-06-18T01:41:17.717Z,1013.06
2019-06-18T01:42:19.108Z,1013.06
2019-06-18T01:43:22.841Z,1013.07
2019-06-18T01:44:23.410Z,1013.06
2019-06-18T01:45:23.219Z,1013.04
2019-06-18T01:46:34.048Z,1013.02
2019-06-18T01:47:25.984Z,1012.99
2019-06-18T01:48:27.381Z,1012.97
2019-06-18T01:49:28.776Z,1013.00
2019-06-18T01:50:32.591Z,1013.04
2019-06-18T01:51:33.179Z,1012.99
2019-06-18T01:52:32.916Z,1013.02
2019-06-18T01:53:34.385Z,1012.98
2019-06-18T01:54:35.776Z,1013.00
2019-06-18T01:55:37.215Z,1013.00
2019-06-18T01:56:38.647Z,1013.00
2019-06-18T01:57:40.031Z,1013.00
2019-06-18T01:58:42.887Z,1012.99
2019-06-18T01:59:42.802Z,1012.96
2019-06-18T02:00:44.201Z,1012.95
2019-06-18T02:01:45.601Z,1012.95
2019-06-18T02:02:46.997Z,1012.92
2019-06-18T02:03:48.403Z,1012.91
2019-06-18T02:04:49.799Z,1012.91
2019-06-18T02:05:52.439Z,1012.94
2019-06-18T02:06:53.725Z,1012.95
2019-06-18T02:07:53.926Z,1012.93
2019-06-18T02:08:55.326Z,1012.92
2019-06-18T02:09:56.720Z,1012.91
2019-06-18T02:10:58.114Z,1012.96
2019-06-18T02:11:59.521Z,1012.91
2019-06-18T02:13:03.450Z,1012.90
2019-06-18T02:14:03.690Z,1012.90
2019-06-18T02:15:03.663Z,1012.87
2019-06-18T02:16:05.062Z,1012.86
2019-06-18T02:17:06.455Z,1012.88
2019-06-18T02:18:07.868Z,1012.91
2019-06-18T02:19:09.256Z,1012.88
2019-06-18T02:20:12.658Z,1012.93
2019-06-18T02:21:12.526Z,1012.92
2019-06-18T02:22:13.398Z,1012.89
2019-06-18T02:23:14.818Z,1012.89
2019-06-18T02:24:16.217Z,1012.86
2019-06-18T02:25:17.630Z,1012.89
2019-06-18T02:26:19.042Z,1012.86
2019-06-18T02:27:23.056Z,1012.85
2019-06-18T02:28:22.745Z,1012.83
2019-06-18T02:29:23.364Z,1012.87
2019-06-18T02:30:24.621Z,1012.86
2019-06-18T02:31:25.971Z,1012.87
2019-06-18T02:32:27.360Z,1012.90
2019-06-18T02:33:28.779Z,1012.88
2019-06-18T02:34:32.913Z,1012.90
2019-06-18T02:35:33.159Z,1012.86
2019-06-18T02:36:33.024Z,1012.87
2019-06-18T02:37:34.283Z,1012.86
2019-06-18T02:38:35.681Z,1012.86
2019-06-18T02:39:37.108Z,1012.87
2019-06-18T02:40:38.518Z,1012.84
2019-06-18T02:41:42.473Z,1012.84
2019-06-18T02:42:43.486Z,1012.82
2019-06-18T02:43:42.744Z,1012.89
2019-06-18T02:44:44.122Z,1012.84
2019-06-18T02:45:45.531Z,1012.83
2019-06-18T02:46:46.928Z,1012.83
2019-06-18T02:47:48.332Z,1012.83
2019-06-18T02:48:49.751Z,1012.82
2019-06-18T02:49:53.190Z,1012.81
2019-06-18T02:50:53.191Z,1012.81
2019-06-18T02:51:53.918Z,1012.83
2019-06-18T02:52:55.324Z,1012.84
2019-06-18T02:53:56.746Z,1012.78
2019-06-18T02:54:58.139Z,1012.81
2019-06-18T02:55:59.548Z,1012.76
2019-06-18T02:57:02.859Z,1012.79
2019-06-18T02:58:03.616Z,1012.78
2019-06-18T02:59:03.715Z,1012.81
2019-06-18T03:00:05.152Z,1012.81
2019-06-18T03:01:06.545Z,1012.79
2019-06-18T03:02:07.962Z,1012.78
2019-06-18T03:03:09.362Z,1012.79
2019-06-18T03:04:12.820Z,1012.78
2019-06-18T03:05:13.412Z,1012.82
2019-06-18T03:06:13.499Z,1012.82
2019-06-18T03:07:14.907Z,1012.77
2019-06-18T03:08:16.345Z,1012.79
2019-06-18T03:09:17.752Z,1012.79
2019-06-18T03:10:19.159Z,1012.78
2019-06-18T03:11:22.615Z,1012.78
2019-06-18T03:12:22.821Z,1012.75
2019-06-18T03:13:23.426Z,1012.74
2019-06-18T03:14:24.652Z,1012.73
2019-06-18T03:15:26.060Z,1012.76
2019-06-18T03:16:27.459Z,1012.71
2019-06-18T03:17:32.631Z,1012.68
2019-06-18T03:18:32.437Z,1012.69
2019-06-18T03:19:32.361Z,1012.67
2019-06-18T03:20:33.731Z,1012.72
2019-06-18T03:21:34.318Z,1012.66
2019-06-18T03:22:35.740Z,1012.68
2019-06-18T03:23:37.137Z,1012.69
2019-06-18T03:24:38.537Z,1012.64
2019-06-18T03:25:42.372Z,1012.67
2019-06-18T03:26:43.091Z,1012.64
2019-06-18T03:27:46.060Z,1012.71
2019-06-18T03:28:44.026Z,1012.67
2019-06-18T03:29:45.436Z,1012.64
2019-06-18T03:30:46.829Z,1012.65
2019-06-18T03:31:48.241Z,1012.61
2019-06-18T03:32:49.634Z,1012.66
2019-06-18T03:33:54.830Z,1012.71
2019-06-18T03:34:53.446Z,1012.68
2019-06-18T03:35:53.741Z,1012.63
2019-06-18T03:36:55.140Z,1012.64
2019-06-18T03:37:56.552Z,1012.59
2019-06-18T03:38:57.945Z,1012.62
2019-06-18T03:39:59.388Z,1012.61
2019-06-18T03:41:02.679Z,1012.66
2019-06-18T03:42:02.538Z,1012.66
2019-06-18T03:43:04.418Z,1012.63
2019-06-18T03:44:04.868Z,1012.64
2019-06-18T03:45:06.274Z,1012.66
2019-06-18T03:46:07.681Z,1012.63
2019-06-18T03:47:09.079Z,1012.67
2019-06-18T03:48:12.656Z,1012.64
2019-06-18T03:49:12.364Z,1012.62
2019-06-18T03:50:13.269Z,1012.63
2019-06-18T03:51:14.618Z,1012.60
2019-06-18T03:52:16.005Z,1012.59
2019-06-18T03:53:17.403Z,1012.55
2019-06-18T03:54:20.295Z,1012.55
2019-06-18T03:55:20.170Z,1012.51
2019-06-18T03:56:22.518Z,1012.51
2019-06-18T03:57:22.939Z,1012.58
2019-06-18T03:58:24.335Z,1012.57
2019-06-18T03:59:25.729Z,1012.52
2019-06-18T04:00:27.149Z,1012.52
2019-06-18T04:01:28.550Z,1012.52
2019-06-18T04:02:29.948Z,1012.51
2019-06-18T04:03:33.181Z,1012.54
2019-06-18T04:04:33.018Z,1012.53
2019-06-18T04:05:34.093Z,1012.50
2019-06-18T04:06:35.482Z,1012.48
2019-06-18T04:07:36.898Z,1012.51
2019-06-18T04:08:38.313Z,1012.48
2019-06-18T04:09:39.692Z,1012.49
2019-06-18T04:10:43.107Z,1012.50
2019-06-18T04:11:43.286Z,1012.53
2019-06-18T04:12:43.810Z,1012.51
2019-06-18T04:13:45.211Z,1012.52
2019-06-18T04:14:46.615Z,1012.49
2019-06-18T04:15:48.015Z,1012.52
2019-06-18T04:16:49.419Z,1012.52
2019-06-18T04:18:02.118Z,1012.52
2019-06-18T04:18:52.630Z,1012.54
2019-06-18T04:19:53.555Z,1012.54
2019-06-18T04:20:54.950Z,1012.55
2019-06-18T04:21:56.342Z,1012.55
2019-06-18T04:22:57.751Z,1012.53
2019-06-18T04:23:59.152Z,1012.62
2019-06-18T04:25:03.062Z,1012.59
2019-06-18T04:26:02.655Z,1012.57
2019-06-18T04:27:03.622Z,1012.56
2019-06-18T04:28:04.668Z,1012.54
2019-06-18T04:29:06.063Z,1012.52
2019-06-18T04:30:07.484Z,1012.54
2019-06-18T04:31:08.883Z,1012.53
2019-06-18T04:32:12.739Z,1012.56
2019-06-18T04:33:13.416Z,1012.58
2019-06-18T04:34:13.179Z,1012.56
2019-06-18T04:35:14.448Z,1012.52
2019-06-18T04:36:15.846Z,1012.54
2019-06-18T04:37:17.257Z,1012.54
2019-06-18T04:38:18.659Z,1012.49
2019-06-18T04:39:22.396Z,1012.52
2019-06-18T04:40:24.329Z,1012.51
2019-06-18T04:41:22.814Z,1012.51
2019-06-18T04:42:24.212Z,1012.52
2019-06-18T04:43:25.632Z,1012.53
2019-06-18T04:44:27.056Z,1012.56
2019-06-18T04:45:28.450Z,1012.55
2019-06-18T04:46:32.414Z,1012.60
2019-06-18T04:47:32.645Z,1012.66
2019-06-18T04:48:33.463Z,1012.68
2019-06-18T04:49:34.016Z,1012.68
2019-06-18T04:50:35.433Z,1012.69
2019-06-18T04:51:36.827Z,1012.68
2019-06-18T04:52:38.230Z,1012.62
2019-06-18T04:53:42.584Z,1012.59
2019-06-18T04:54:42.694Z,1012.56
2019-06-18T04:55:42.630Z,1012.58
2019-06-18T04:56:43.735Z,1012.64
2019-06-18T04:57:45.152Z,1012.67
2019-06-18T04:58:46.576Z,1012.74
2019-06-18T04:59:47.968Z,1012.76
2019-06-18T05:00:49.365Z,1012.76
2019-06-18T05:01:53.000Z,1012.74
2019-06-18T05:02:53.697Z,1012.74
2019-06-18T05:03:53.522Z,1012.79
2019-06-18T05:04:54.920Z,1012.76
2019-06-18T05:05:56.340Z,1012.76
2019-06-18T05:06:57.747Z,1012.72
2019-06-18T05:07:59.159Z,1012.67
2019-06-18T05:09:02.961Z,1012.67
2019-06-18T05:10:03.553Z,1012.72
2019-06-18T05:11:03.334Z,1012.77
2019-06-18T05:12:04.745Z,1012.80
2019-06-18T05:13:06.158Z,1012.84
2019-06-18T05:14:07.591Z,1012.85
2019-06-18T05:15:08.998Z,1012.86
2019-06-18T05:16:12.623Z,1012.91
2019-06-18T05:17:13.554Z,1012.88
2019-06-18T05:18:13.181Z,1012.85
2019-06-18T05:19:14.623Z,1012.78
2019-06-18T05:20:16.029Z,1012.72
2019-06-18T05:21:17.429Z,1012.69
2019-06-18T05:22:18.838Z,1012.66
2019-06-18T05:23:22.421Z,1012.73
2019-06-18T05:24:23.159Z,1012.75
2019-06-18T05:25:22.995Z,1012.71
2019-06-18T05:26:24.423Z,1012.74
2019-06-18T05:27:25.838Z,1012.72
2019-06-18T05:28:27.242Z,1012.70
2019-06-18T05:29:28.670Z,1012.70
2019-06-18T05:30:32.867Z,1012.76
2019-06-18T05:31:33.555Z,1012.74
2019-06-18T05:32:32.833Z,1012.71
2019-06-18T05:33:34.288Z,1012.69
2019-06-18T05:34:35.694Z,1012.69
2019-06-18T05:35:37.108Z,1012.80
2019-06-18T05:36:38.538Z,1012.76
2019-06-18T05:37:42.435Z,1012.80
2019-06-18T05:38:42.934Z,1012.86
2019-06-18T05:39:43.732Z,1012.89
2019-06-18T05:40:44.785Z,1012.97
2019-06-18T05:41:46.187Z,1012.91
2019-06-18T05:42:47.597Z,1012.88
2019-06-18T05:43:49.011Z,1012.77
2019-06-18T05:44:53.292Z,1012.70
2019-06-18T05:45:52.721Z,1012.72
2019-06-18T05:46:53.783Z,1012.71
2019-06-18T05:47:54.526Z,1012.70
2019-06-18T05:48:58.317Z,1012.71
2019-06-18T05:49:57.311Z,1012.65
2019-06-18T05:50:58.710Z,1012.68
2019-06-18T05:52:00.119Z,1012.66
2019-06-18T05:53:03.407Z,1012.69
2019-06-18T05:54:03.249Z,1012.65
2019-06-18T05:55:04.358Z,1012.70
2019-06-18T05:56:05.646Z,1012.70
2019-06-18T05:57:07.054Z,1012.69
2019-06-18T05:58:08.465Z,1012.72
2019-06-18T05:59:09.876Z,1012.69
2019-06-18T06:00:12.968Z,1012.68
2019-06-18T06:01:13.086Z,1012.71
2019-06-18T06:02:14.045Z,1012.69
2019-06-18T06:03:15.452Z,1012.71
2019-06-18T06:04:16.855Z,1012.71
2019-06-18T06:05:18.266Z,1012.68
2019-06-18T06:06:22.180Z,1012.71
2019-06-18T06:07:22.778Z,1012.66
2019-06-18T06:08:22.559Z,1012.67
2019-06-18T06:09:24.269Z,1012.72
2019-06-18T06:10:25.147Z,1012.70
2019-06-18T06:11:26.574Z,1012.70
2019-06-18T06:12:27.976Z,1012.71
2019-06-18T06:13:29.392Z,1012.72
2019-06-18T06:14:32.991Z,1012.72
2019-06-18T06:15:32.879Z,1012.68
2019-06-18T06:16:33.725Z,1012.72
2019-06-18T06:17:34.908Z,1012.69
2019-06-18T06:18:36.309Z,1012.66
2019-06-18T06:19:37.738Z,1012.71
2019-06-18T06:20:39.152Z,1012.69
2019-06-18T06:21:42.918Z,1012.69
2019-06-18T06:22:42.418Z,1012.71
2019-06-18T06:23:43.522Z,1012.68
2019-06-18T06:24:44.730Z,1012.69
2019-06-18T06:25:46.141Z,1012.69
2019-06-18T06:26:47.579Z,1012.67
2019-06-18T06:27:48.987Z,1012.69
2019-06-18T06:28:52.753Z,1012.68
2019-06-18T06:29:53.148Z,1012.67
2019-06-18T06:30:53.186Z,1012.63
2019-06-18T06:31:54.613Z,1012.66
2019-06-18T06:32:56.024Z,1012.62
2019-06-18T06:33:57.441Z,1012.59
2019-06-18T06:34:58.857Z,1012.60
2019-06-18T06:36:02.421Z,1012.49
2019-06-18T06:37:03.942Z,1012.54
2019-06-18T06:38:04.048Z,1012.54
2019-06-18T06:39:04.435Z,1012.54
2019-06-18T06:40:05.877Z,1012.56
2019-06-18T06:41:07.293Z,1012.51
2019-06-18T06:42:08.705Z,1012.56
2019-06-18T06:43:10.115Z,1012.51
2019-06-18T06:44:12.819Z,1012.51
2019-06-18T06:45:13.259Z,1012.52
2019-06-18T06:46:14.322Z,1012.53
2019-06-18T06:47:15.754Z,1012.46
2019-06-18T06:48:17.170Z,1012.45
2019-06-18T06:49:30.885Z,1012.44
2019-06-18T06:50:22.415Z,1012.48
2019-06-18T06:51:23.119Z,1012.46
2019-06-18T06:52:23.133Z,1012.44
2019-06-18T06:53:24.157Z,1012.40
2019-06-18T06:54:25.595Z,1012.42
2019-06-18T06:55:27.009Z,1012.39
2019-06-18T06:56:29.098Z,1012.41
2019-06-18T06:57:29.778Z,1012.38
2019-06-18T06:58:33.032Z,1012.43
2019-06-18T06:59:32.739Z,1012.36
2019-06-18T07:00:33.978Z,1012.36
2019-06-18T07:01:35.412Z,1012.34
2019-06-18T07:02:36.822Z,1012.30
2019-06-18T07:03:38.242Z,1012.33
2019-06-18T07:04:42.482Z,1012.33
2019-06-18T07:05:42.584Z,1012.35
2019-06-18T07:06:43.338Z,1012.32
2019-06-18T07:07:43.787Z,1012.31
2019-06-18T07:08:45.218Z,1012.35
2019-06-18T07:09:46.620Z,1012.33
2019-06-18T07:10:48.023Z,1012.35
2019-06-18T07:11:49.439Z,1012.39
2019-06-18T07:12:52.739Z,1012.34
2019-06-18T07:13:54.048Z,1012.43
2019-06-18T07:14:53.957Z,1012.43
2019-06-18T07:15:54.957Z,1012.42
2019-06-18T07:16:56.371Z,1012.42
2019-06-18T07:17:57.788Z,1012.42
2019-06-18T07:18:59.211Z,1012.40
2019-06-18T07:20:02.746Z,1012.43
2019-06-18T07:21:02.254Z,1012.42
2019-06-18T07:22:03.667Z,1012.39
2019-06-18T07:23:04.749Z,1012.41
2019-06-18T07:24:06.168Z,1012.37
2019-06-18T07:25:07.589Z,1012.38
2019-06-18T07:26:09.000Z,1012.34
2019-06-18T07:27:13.012Z,1012.38
2019-06-18T07:28:12.987Z,1012.28
2019-06-18T07:29:14.310Z,1012.24
2019-06-18T07:30:14.529Z,1012.31
2019-06-18T07:31:15.940Z,1012.31
2019-06-18T07:32:17.356Z,1012.32
2019-06-18T07:33:18.770Z,1012.35
2019-06-18T07:34:20.186Z,1012.27
2019-06-18T07:35:27.696Z,1012.30
2019-06-18T07:36:23.137Z,1012.31
2019-06-18T07:37:24.334Z,1012.32
2019-06-18T07:38:25.775Z,1012.33
2019-06-18T07:39:27.144Z,1012.28
2019-06-18T07:40:28.571Z,1012.32
2019-06-18T07:41:32.369Z,1012.27
2019-06-18T07:42:33.250Z,1012.25
2019-06-18T07:43:32.799Z,1012.26
2019-06-18T07:44:34.087Z,1012.27
2019-06-18T07:45:35.497Z,1012.25
2019-06-18T07:46:36.911Z,1012.31
2019-06-18T07:47:38.314Z,1012.30
2019-06-18T07:48:39.721Z,1012.33
2019-06-18T07:49:42.914Z,1012.25
2019-06-18T07:50:44.306Z,1012.25
2019-06-18T07:51:43.963Z,1012.23
2019-06-18T07:52:45.359Z,1012.25
2019-06-18T07:53:46.781Z,1012.22
2019-06-18T07:54:48.180Z,1012.26
2019-06-18T07:55:52.131Z,1012.20
2019-06-18T07:56:52.678Z,1012.22
2019-06-18T07:57:53.926Z,1012.17
2019-06-18T07:58:53.716Z,1012.20
2019-06-18T07:59:55.112Z,1012.16
2019-06-18T08:00:56.524Z,1012.19
2019-06-18T08:01:57.971Z,1012.15
2019-06-18T08:02:59.354Z,1012.13
2019-06-18T08:04:02.921Z,1012.14
2019-06-18T08:05:03.735Z,1012.11
2019-06-18T08:06:03.738Z,1012.19
2019-06-18T08:07:06.124Z,1012.06
2019-06-18T08:08:06.287Z,1012.14
2019-06-18T08:09:07.700Z,1012.13
2019-06-18T08:10:09.126Z,1012.11
2019-06-18T08:11:12.266Z,1012.10
2019-06-18T08:12:12.820Z,1012.10
2019-06-18T08:13:13.465Z,1012.04
2019-06-18T08:14:14.683Z,1012.06
2019-06-18T08:15:16.094Z,1012.02
2019-06-18T08:16:17.502Z,1012.00
2019-06-18T08:17:18.908Z,1011.95
2019-06-18T08:18:20.300Z,1012.00
2019-06-18T08:19:23.694Z,1011.99
2019-06-18T08:20:34.030Z,1012.02
2019-06-18T08:21:24.457Z,1012.01
2019-06-18T08:22:25.882Z,1011.96
2019-06-18T08:23:27.296Z,1011.91
2019-06-18T08:24:28.704Z,1011.96
2019-06-18T08:25:32.699Z,1011.91
2019-06-18T08:26:32.937Z,1011.92
2019-06-18T08:27:33.074Z,1011.91
2019-06-18T08:28:34.229Z,1011.94
2019-06-18T08:29:35.657Z,1011.98
2019-06-18T08:30:37.069Z,1011.87
2019-06-18T08:31:52.918Z,1011.88
2019-06-18T08:32:39.867Z,1011.83
2019-06-18T08:33:42.595Z,1011.85
2019-06-18T08:34:42.962Z,1011.81
2019-06-18T08:35:44.026Z,1011.84
2019-06-18T08:36:45.440Z,1011.84
2019-06-18T08:37:46.847Z,1011.84
2019-06-18T08:38:48.247Z,1011.81
2019-06-18T08:39:49.656Z,1011.80
2019-06-18T08:40:52.824Z,1011.77
2019-06-18T08:41:52.447Z,1011.81
2019-06-18T08:42:53.853Z,1011.78
2019-06-18T08:43:55.273Z,1011.82
2019-06-18T08:44:56.695Z,1011.81
2019-06-18T08:45:58.099Z,1011.75
2019-06-18T08:46:59.514Z,1011.78
2019-06-18T08:48:02.666Z,1011.79
2019-06-18T08:49:02.847Z,1011.76
2019-06-18T08:50:03.654Z,1011.76
2019-06-18T08:51:05.074Z,1011.78
2019-06-18T08:52:06.483Z,1011.78
2019-06-18T08:53:07.907Z,1011.79
2019-06-18T08:54:09.309Z,1011.73
2019-06-18T08:55:12.875Z,1011.80
2019-06-18T08:56:14.678Z,1011.78
2019-06-18T08:57:13.463Z,1011.74
2019-06-18T08:58:14.872Z,1011.81
2019-06-18T08:59:16.286Z,1011.70
2019-06-18T09:00:17.690Z,1011.76
2019-06-18T09:01:19.101Z,1011.76
2019-06-18T09:02:22.495Z,1011.71
2019-06-18T09:03:26.601Z,1011.77
2019-06-18T09:04:23.271Z,1011.65
2019-06-18T09:05:24.694Z,1011.70
2019-06-18T09:06:26.114Z,1011.64
2019-06-18T09:07:27.514Z,1011.66
2019-06-18T09:08:28.926Z,1011.65
2019-06-18T09:09:32.015Z,1011.64
2019-06-18T09:10:33.124Z,1011.65
2019-06-18T09:11:33.174Z,1011.69
2019-06-18T09:12:34.468Z,1011.66
2019-06-18T09:13:35.861Z,1011.66
2019-06-18T09:14:37.258Z,1011.61
2019-06-18T09:15:38.673Z,1011.61
2019-06-18T09:16:40.084Z,1011.57
2019-06-18T09:17:43.615Z,1011.57
2019-06-18T09:18:43.029Z,1011.59
2019-06-18T09:19:44.269Z,1011.54
2019-06-18T09:20:59.889Z,1011.56
2019-06-18T09:21:47.041Z,1011.66
2019-06-18T09:22:48.454Z,1011.58
2019-06-18T09:23:52.636Z,1011.61
2019-06-18T09:24:53.038Z,1011.52
2019-06-18T09:25:53.319Z,1011.55
2019-06-18T09:26:54.036Z,1011.52
2019-06-18T09:27:55.494Z,1011.59
2019-06-18T09:28:56.919Z,1011.50
2019-06-18T09:29:58.330Z,1011.43
2019-06-18T09:31:02.249Z,1011.44
2019-06-18T09:32:03.135Z,1011.41
2019-06-18T09:33:02.687Z,1011.52
2019-06-18T09:34:03.892Z,1011.48
2019-06-18T09:35:05.304Z,1011.52
2019-06-18T09:36:07.640Z,1011.53
2019-06-18T09:37:09.066Z,1011.48
2019-06-18T09:38:13.067Z,1011.52
2019-06-18T09:39:13.840Z,1011.56
2019-06-18T09:40:13.275Z,1011.44
2019-06-18T09:41:14.710Z,1011.39
2019-06-18T09:42:16.153Z,1011.47
2019-06-18T09:43:17.569Z,1011.50
2019-06-18T09:44:18.983Z,1011.42
2019-06-18T09:45:23.127Z,1011.42
2019-06-18T09:46:22.875Z,1011.40
2019-06-18T09:47:23.336Z,1011.31
2019-06-18T09:48:24.600Z,1011.34
2019-06-18T09:49:26.010Z,1011.42
2019-06-18T09:50:27.425Z,1011.40
2019-06-18T09:51:28.840Z,1011.50
2019-06-18T09:52:32.288Z,1011.36
2019-06-18T09:53:33.105Z,1011.35
2019-06-18T09:54:33.084Z,1011.37
2019-06-18T09:55:34.503Z,1011.29
2019-06-18T09:56:35.917Z,1011.31
2019-06-18T09:57:37.329Z,1011.32
2019-06-18T09:58:38.738Z,1011.30
2019-06-18T09:59:42.260Z,1011.36
2019-06-18T10:00:42.745Z,1011.34
2019-06-18T10:01:43.197Z,1011.33
2019-06-18T10:02:44.317Z,1011.35
2019-06-18T10:03:45.658Z,1011.24
2019-06-18T10:04:47.073Z,1011.20
2019-06-18T10:05:48.478Z,1011.17
2019-06-18T10:06:49.885Z,1011.27
2019-06-18T10:07:52.357Z,1011.38
2019-06-18T10:08:53.109Z,1011.33
2019-06-18T10:09:54.046Z,1011.27
2019-06-18T10:10:55.455Z,1011.27
2019-06-18T10:11:56.862Z,1011.19
2019-06-18T10:12:58.270Z,1011.16
2019-06-18T10:14:02.496Z,1011.20
2019-06-18T10:15:03.654Z,1011.23
2019-06-18T10:16:03.588Z,1011.21
2019-06-18T10:17:04.129Z,1011.22
2019-06-18T10:18:05.188Z,1011.22
2019-06-18T10:19:06.619Z,1011.18
2019-06-18T10:20:07.998Z,1011.22
2019-06-18T10:21:09.417Z,1011.29
2019-06-18T10:22:13.862Z,1011.33
2019-06-18T10:23:13.694Z,1011.20
2019-06-18T10:24:13.652Z,1011.24
2019-06-18T10:25:15.066Z,1011.28
2019-06-18T10:26:16.478Z,1011.37
2019-06-18T10:27:17.935Z,1011.22
2019-06-18T10:28:19.317Z,1011.19
2019-06-18T10:29:32.281Z,1011.16
2019-06-18T10:30:23.471Z,1011.14
2019-06-18T10:31:23.560Z,1011.17
2019-06-18T10:32:24.865Z,1011.11
2019-06-18T10:33:26.273Z,1011.12
2019-06-18T10:34:27.679Z,1011.10
2019-06-18T10:35:29.084Z,1011.20
2019-06-18T10:36:32.501Z,1011.14
2019-06-18T10:37:32.841Z,1011.12
2019-06-18T10:38:33.243Z,1011.07
2019-06-18T10:39:34.673Z,1011.10
2019-06-18T10:40:36.085Z,1011.10
2019-06-18T10:41:37.500Z,1011.03
2019-06-18T10:42:38.910Z,1011.01
2019-06-18T10:43:40.330Z,1010.99
2019-06-18T10:44:43.447Z,1011.01
2019-06-18T10:45:43.144Z,1010.97
2019-06-18T10:46:44.573Z,1011.04
2019-06-18T10:47:45.995Z,1011.05
2019-06-18T10:48:47.412Z,1011.10
2019-06-18T10:49:48.833Z,1011.06
2019-06-18T10:50:53.143Z,1010.96
2019-06-18T10:51:57.806Z,1011.03
2019-06-18T10:52:53.325Z,1011.00
2019-06-18T10:53:54.424Z,1010.87
2019-06-18T10:54:55.868Z,1010.90
2019-06-18T10:55:57.334Z,1010.86
2019-06-18T10:56:58.756Z,1010.89
2019-06-18T10:58:00.199Z,1010.86
2019-06-18T10:59:02.929Z,1010.88
2019-06-18T11:00:03.472Z,1010.87
2019-06-18T11:01:04.379Z,1010.83
2019-06-18T11:02:05.781Z,1010.87
2019-06-18T11:03:07.199Z,1010.85
2019-06-18T11:04:08.612Z,1010.86
2019-06-18T11:05:12.741Z,1010.85
2019-06-18T11:06:13.232Z,1010.78
2019-06-18T11:07:12.780Z,1010.76
2019-06-18T11:08:14.206Z,1010.81
2019-06-18T11:09:15.620Z,1010.83
2019-06-18T11:10:17.064Z,1010.76
2019-06-18T11:11:19.555Z,1010.80
2019-06-18T11:12:23.789Z,1010.89
2019-06-18T11:13:23.691Z,1010.89
2019-06-18T11:14:23.678Z,1010.82
2019-06-18T11:15:25.106Z,1010.74
2019-06-18T11:16:26.512Z,1010.71
2019-06-18T11:17:27.946Z,1010.76
2019-06-18T11:18:32.605Z,1010.81
2019-06-18T11:19:32.375Z,1010.77
2019-06-18T11:20:32.142Z,1010.81
2019-06-18T11:21:33.718Z,1010.80
2019-06-18T11:22:34.952Z,1010.74
2019-06-18T11:23:38.318Z,1010.83
2019-06-18T11:24:37.766Z,1010.80
2019-06-18T11:25:39.185Z,1010.77
2019-06-18T11:26:43.413Z,1010.70
2019-06-18T11:27:42.482Z,1010.67
2019-06-18T11:28:43.544Z,1010.66
2019-06-18T11:29:44.749Z,1010.80
2019-06-18T11:30:46.180Z,1010.78
2019-06-18T11:31:47.610Z,1010.85
2019-06-18T11:32:49.029Z,1010.77
2019-06-18T11:33:53.395Z,1010.68
2019-06-18T11:34:51.866Z,1010.76
2019-06-18T11:35:56.184Z,1010.76
2019-06-18T11:36:54.655Z,1010.78
2019-06-18T11:37:56.104Z,1010.82
2019-06-18T11:38:57.528Z,1010.73
2019-06-18T11:39:58.946Z,1010.64
2019-06-18T11:41:02.717Z,1010.75
2019-06-18T11:42:03.771Z,1010.67
2019-06-18T11:43:04.073Z,1010.85
2019-06-18T11:44:04.568Z,1010.75
2019-06-18T11:45:06.019Z,1010.76
2019-06-18T11:46:07.446Z,1010.73
2019-06-18T11:47:08.878Z,1010.72
2019-06-18T11:48:12.330Z,1010.77
2019-06-18T11:49:13.403Z,1010.70
2019-06-18T11:50:13.095Z,1010.63
2019-06-18T11:51:14.514Z,1010.59
2019-06-18T11:52:28.987Z,1010.64
2019-06-18T11:53:17.322Z,1010.74
2019-06-18T11:54:21.474Z,1010.68
2019-06-18T11:55:23.016Z,1010.73
2019-06-18T11:56:23.359Z,1010.68
2019-06-18T11:57:22.936Z,1010.76
2019-06-18T11:58:24.382Z,1010.56
2019-06-18T11:59:25.747Z,1010.62
2019-06-18T12:00:27.194Z,1010.58
2019-06-18T12:01:28.601Z,1010.62
2019-06-18T12:02:30.060Z,1010.44
2019-06-18T12:03:32.930Z,1010.60
2019-06-18T12:04:33.768Z,1010.55
2019-06-18T12:05:34.307Z,1010.46
2019-06-18T12:06:35.767Z,1010.47
2019-06-18T12:07:37.177Z,1010.57
2019-06-18T12:08:38.603Z,1010.54
2019-06-18T12:09:40.047Z,1010.47
2019-06-18T12:10:42.503Z,1010.37
2019-06-18T12:11:43.062Z,1010.46
2019-06-18T12:12:44.243Z,1010.42
2019-06-18T12:13:45.671Z,1010.58
2019-06-18T12:14:47.087Z,1010.42
2019-06-18T12:15:48.569Z,1010.46
2019-06-18T12:16:52.254Z,1010.47
2019-06-18T12:17:51.440Z,1010.48
2019-06-18T12:18:53.244Z,1010.44
2019-06-18T12:19:54.219Z,1010.44
2019-06-18T12:20:55.645Z,1010.60
2019-06-18T12:21:57.055Z,1010.48